Time;durP1;ratioP1;P1;durP2;ratioP2;P2;SDS_P1;SDS_P2;PMS_P1;PMS_P2;Temp;Humidity;BMP_temperature;BMP_pressure;BME280_temperature;BME280_humidity;BME280_pressure;Samples;Min_cycle;Max_cycle;Signal;HPM_P1;HPM_P2
2023/01/06 00:01:26;;;;;;;2.63;0.22;;;;;;;-3.34;65.54;102585.56;5031714;28;20171;-79
2023/01/06 00:03:58;;;;;;;2.05;0.20;;;;;;;-3.39;65.68;102571.56;5029483;28;20389;-79
2023/01/06 00:06:27;;;;;;;1.85;0.30;;;;;;;-3.35;65.69;102577.81;5028027;28;20064;-79
2023/01/06 00:08:54;;;;;;;3.00;0.52;;;;;;;-3.36;65.81;102582.00;5029709;28;20042;-79
2023/01/06 00:11:21;;;;;;;2.10;0.40;;;;;;;-3.35;65.94;102588.03;5027839;28;20107;-79
2023/01/06 00:13:48;;;;;;;2.45;0.50;;;;;;;-3.36;65.95;102586.22;5031208;28;20052;-79
2023/01/06 00:16:20;;;;;;;1.27;0.20;;;;;;;-3.48;66.03;102576.97;5027422;28;20077;-79
2023/01/06 00:18:47;;;;;;;1.83;0.40;;;;;;;-3.35;66.10;102603.34;5031193;28;20046;-79
2023/01/06 00:21:16;;;;;;;6.18;0.30;;;;;;;-3.34;66.13;102610.22;5026089;28;20054;-79
2023/01/06 00:23:43;;;;;;;2.13;0.30;;;;;;;-3.38;66.20;102600.59;5027551;28;20839;-79
2023/01/06 00:26:10;;;;;;;3.30;0.30;;;;;;;-3.35;66.00;102608.47;5025684;28;20516;-79
2023/01/06 00:28:37;;;;;;;1.60;0.30;;;;;;;-3.35;66.22;102604.25;5026695;28;20045;-79
2023/01/06 00:31:09;;;;;;;0.93;0.30;;;;;;;-3.34;66.37;102608.56;5023952;28;20041;-79
2023/01/06 00:33:36;;;;;;;4.47;0.40;;;;;;;-3.34;66.12;102613.66;5031435;28;20045;-79
2023/01/06 00:36:03;;;;;;;1.42;0.68;;;;;;;-3.37;66.23;102616.00;5029746;28;20045;-80
2023/01/06 00:38:35;;;;;;;4.35;0.30;;;;;;;-3.36;66.21;102612.66;5027694;28;20049;-79
2023/01/06 00:41:04;;;;;;;1.65;0.20;;;;;;;-3.42;66.45;102604.59;5030818;28;20636;-79
2023/01/06 00:43:31;;;;;;;1.30;0.22;;;;;;;-3.36;66.63;102622.00;5028502;28;20056;-79
2023/01/06 00:45:58;;;;;;;2.70;0.25;;;;;;;-3.37;66.21;102627.91;5028207;28;20227;-79
2023/01/06 00:48:25;;;;;;;1.83;0.30;;;;;;;-3.40;66.49;102621.81;5026923;28;20050;-78
2023/01/06 00:50:59;;;;;;;2.40;0.25;;;;;;;-3.41;66.44;102627.72;5030476;28;20049;-79
2023/01/06 00:53:26;;;;;;;2.13;0.57;;;;;;;-3.43;66.54;102625.81;5028790;28;20037;-79
2023/01/06 00:56:01;;;;;;;3.05;0.57;;;;;;;-3.46;66.48;102616.28;5026085;28;20418;-79
2023/01/06 00:58:30;;;;;;;1.52;0.70;;;;;;;-3.47;66.47;102606.84;5029547;28;20072;-79
2023/01/06 01:00:57;;;;;;;4.85;0.35;;;;;;;-3.48;66.78;102617.84;5029693;28;20132;-79
2023/01/06 01:03:24;;;;;;;1.05;0.20;;;;;;;-3.53;66.60;102603.88;5028414;28;20074;-79
2023/01/06 01:05:51;;;;;;;1.00;0.20;;;;;;;-3.54;66.69;102603.78;5030727;28;20054;-79
2023/01/06 01:08:18;;;;;;;4.28;0.30;;;;;;;-3.52;66.84;102610.75;5030065;28;20472;-79
2023/01/06 01:10:45;;;;;;;4.32;0.70;;;;;;;-3.66;67.00;102585.94;5031077;28;20080;-79
2023/01/06 01:13:13;;;;;;;1.75;0.30;;;;;;;-3.52;67.12;102609.88;5029496;28;20128;-79
2023/01/06 01:15:40;;;;;;;2.60;0.30;;;;;;;-3.54;66.86;102596.09;5030451;28;20125;-79
2023/01/06 01:18:07;;;;;;;2.90;0.90;;;;;;;-3.55;66.57;102589.25;5024620;28;20071;-78
2023/01/06 01:20:34;;;;;;;2.22;0.45;;;;;;;-3.55;66.98;102610.56;5025320;28;20163;-79
2023/01/06 01:23:01;;;;;;;3.22;0.30;;;;;;;-3.56;67.00;102603.66;5030296;28;20144;-79
2023/01/06 01:25:28;;;;;;;3.83;0.30;;;;;;;-3.56;67.12;102608.75;5027972;28;20065;-79
2023/01/06 01:27:55;;;;;;;2.15;0.40;;;;;;;-3.75;67.20;102572.56;5021518;28;20653;-79
2023/01/06 01:30:23;;;;;;;1.13;0.47;;;;;;;-3.57;67.41;102607.00;5023767;28;20049;-79
2023/01/06 01:32:50;;;;;;;3.53;0.70;;;;;;;-3.58;67.17;102607.78;5029268;28;20490;-79
2023/01/06 01:35:17;;;;;;;1.88;0.30;;;;;;;-3.58;67.06;102600.13;5020097;28;20046;-79
2023/01/06 01:37:44;;;;;;;2.33;0.52;;;;;;;-3.58;67.19;102604.34;5027542;28;20045;-79
2023/01/06 01:40:12;;;;;;;2.78;0.38;;;;;;;-3.57;67.18;102609.56;5028055;28;20049;-79
2023/01/06 01:42:38;;;;;;;1.38;0.30;;;;;;;-3.58;68.00;102618.00;5025181;28;20057;-79
2023/01/06 01:45:23;;;;;;;1.13;0.20;;;;;;;-3.57;67.45;102613.78;5024464;28;20041;-79
2023/01/06 01:47:54;;;;;;;2.15;0.30;;;;;;;-3.56;67.53;102631.75;5027995;28;20044;-79
2023/01/06 01:50:28;;;;;;;2.70;1.25;;;;;;;-3.57;67.61;102627.44;5025111;28;20765;-79
2023/01/06 01:53:01;;;;;;;0.85;0.40;;;;;;;-3.54;67.83;102635.31;5030633;28;20052;-79
2023/01/06 01:55:30;;;;;;;2.63;0.25;;;;;;;-3.53;67.50;102633.63;5027516;28;20041;-79
2023/01/06 01:58:01;;;;;;;1.98;0.30;;;;;;;-3.53;67.95;102634.53;5027147;28;20128;-79
2023/01/06 02:00:28;;;;;;;5.95;0.40;;;;;;;-3.51;67.73;102634.63;5030483;28;20079;-79
2023/01/06 02:02:57;;;;;;;2.35;0.30;;;;;;;-3.52;67.88;102638.84;5027970;28;20046;-79
2023/01/06 02:05:26;;;;;;;5.47;0.70;;;;;;;-3.52;67.70;102633.75;5025640;28;20752;-79
2023/01/06 02:07:57;;;;;;;1.70;0.38;;;;;;;-3.50;67.86;102633.84;5023727;28;20041;-79
2023/01/06 02:10:25;;;;;;;1.83;0.32;;;;;;;-3.51;68.13;102638.06;5031179;28;20056;-79
2023/01/06 02:12:56;;;;;;;1.77;0.28;;;;;;;-3.49;68.02;102638.19;5029277;28;20558;-79
2023/01/06 02:15:26;;;;;;;5.00;0.95;;;;;;;-3.50;67.86;102639.84;5031193;28;20137;-78
2023/01/06 02:18:18;;;;;;;4.35;0.20;;;;;;;-3.50;68.00;102639.84;5027974;28;20046;-79
2023/01/06 02:21:03;;;;;;;1.23;0.30;;;;;;;-3.49;67.84;102628.84;5023195;28;20102;-79
2023/01/06 02:23:47;;;;;;;2.22;0.52;;;;;;;-3.48;67.92;102629.72;5028212;28;20049;-79
2023/01/06 02:27:00;;;;;;;3.35;0.25;;;;;;;-3.47;67.81;102627.28;5026777;28;20044;-79
2023/01/06 02:30:11;;;;;;;2.72;0.28;;;;;;;-3.47;67.96;102629.84;5022026;28;20560;-79
2023/01/06 02:32:58;;;;;;;1.58;0.38;;;;;;;-3.46;68.22;102636.72;5005347;28;20056;-79
2023/01/06 02:36:00;;;;;;;1.33;0.20;;;;;;;-3.47;68.13;102645.19;5026359;28;20501;-79
2023/01/06 02:38:46;;;;;;;0.60;0.20;;;;;;;-3.45;68.18;102643.59;5015700;28;20052;-79
2023/01/06 02:41:28;;;;;;;5.68;0.90;;;;;;;-3.45;68.11;102643.59;5024247;28;20049;-79
2023/01/06 02:44:03;;;;;;;1.80;0.32;;;;;;;-3.43;68.34;102641.16;5029966;28;20064;-79
2023/01/06 02:46:47;;;;;;;3.83;0.82;;;;;;;-3.43;68.10;102646.25;5018111;28;20151;-79
2023/01/06 02:49:26;;;;;;;0.98;0.30;;;;;;;-3.44;68.34;102635.16;5022459;28;20049;-79
2023/01/06 02:51:58;;;;;;;5.00;0.30;;;;;;;-3.41;68.35;102632.81;5031110;28;20053;-79
2023/01/06 02:54:31;;;;;;;7.07;0.30;;;;;;;-3.40;68.32;102634.56;5024272;28;20059;-79
2023/01/06 02:57:07;;;;;;;4.10;0.40;;;;;;;-3.39;68.25;102627.78;5030751;28;20056;-80
2023/01/06 02:59:38;;;;;;;1.15;0.55;;;;;;;-3.40;68.46;102631.13;5031093;28;20128;-80
2023/01/06 03:02:07;;;;;;;2.75;0.30;;;;;;;-3.37;68.36;102627.91;5027098;28;20136;-78
2023/01/06 03:04:40;;;;;;;1.65;0.30;;;;;;;-3.37;68.54;102633.91;5028706;28;20045;-79
2023/01/06 03:07:08;;;;;;;6.45;0.55;;;;;;;-3.38;68.49;102628.72;5027981;28;20056;-79
2023/01/06 03:09:38;;;;;;;3.17;0.30;;;;;;;-3.37;68.33;102630.47;5024600;28;20046;-78
2023/01/06 03:12:12;;;;;;;3.47;0.30;;;;;;;-3.37;67.92;102631.34;5021335;28;20065;-79
2023/01/06 03:14:44;;;;;;;1.65;0.32;;;;;;;-3.42;68.50;102630.13;5022935;28;20132;-78
2023/01/06 03:17:11;;;;;;;1.95;0.30;;;;;;;-3.42;68.38;102636.13;5028087;28;20049;-79
2023/01/06 03:19:40;;;;;;;4.20;0.40;;;;;;;-3.43;68.06;102626.72;5025618;28;20074;-79
2023/01/06 03:22:09;;;;;;;1.42;0.70;;;;;;;-3.44;67.77;102630.06;5027674;28;20054;-79
2023/01/06 03:24:37;;;;;;;1.77;0.40;;;;;;;-3.45;67.84;102624.81;5019980;28;20045;-79
2023/01/06 03:27:05;;;;;;;0.45;0.40;;;;;;;-3.49;68.01;102625.41;5027477;28;20132;-79
2023/01/06 03:29:32;;;;;;;4.75;0.80;;;;;;;-3.46;67.59;102626.50;5028788;28;20073;-79
2023/01/06 03:32:03;;;;;;;4.68;0.28;;;;;;;-3.48;68.05;102634.84;5017916;28;20057;-79
2023/01/06 03:34:44;;;;;;;1.85;0.25;;;;;;;-3.43;67.49;102636.94;5026912;28;20046;-79
2023/01/06 03:37:20;;;;;;;4.45;0.25;;;;;;;-3.42;67.65;102627.59;5029668;28;20053;-79
2023/01/06 03:39:56;;;;;;;3.03;0.32;;;;;;;-3.41;67.74;102630.25;5030473;28;20080;-72
2023/01/06 03:45:31;;;;;;;4.18;0.32;;;;;;;-3.37;67.68;102636.47;5027593;28;20072;-73
2023/01/06 03:48:05;;;;;;;3.33;0.30;;;;;;;-3.35;67.29;102634.03;5028415;28;20499;-73
2023/01/06 03:50:40;;;;;;;0.75;0.30;;;;;;;-3.32;67.23;102629.13;5029531;28;20499;-73
2023/01/06 03:53:17;;;;;;;3.80;0.30;;;;;;;-3.32;67.43;102634.22;5026681;28;20041;-73
2023/01/06 03:55:52;;;;;;;0.20;0.10;;;;;;;-3.30;67.25;102624.97;5024132;28;20111;-72
2023/01/06 03:58:20;;;;;;;1.20;0.28;;;;;;;-3.29;66.83;102630.19;5027900;28;20041;-72
2023/01/06 04:00:48;;;;;;;2.88;0.30;;;;;;;-3.28;66.95;102624.28;5029573;28;20048;-73
2023/01/06 04:03:16;;;;;;;0.80;0.30;;;;;;;-3.28;66.75;102619.19;5028418;28;20049;-73
2023/01/06 04:05:44;;;;;;;1.88;0.38;;;;;;;-3.27;66.82;102618.41;5028406;28;20048;-73
2023/01/06 04:08:11;;;;;;;1.42;0.28;;;;;;;-3.25;67.04;102628.72;5022107;28;20431;-73
2023/01/06 04:10:38;;;;;;;1.85;0.38;;;;;;;-3.23;66.53;102624.63;5025086;28;20128;-72
2023/01/06 04:13:04;;;;;;;0.93;0.20;;;;;;;-3.23;66.48;102624.63;5013820;28;20049;-73
2023/01/06 04:15:31;;;;;;;0.70;0.22;;;;;;;-3.22;66.43;102621.25;5787089;23;20051;-73
2023/01/06 04:17:58;;;;;;;3.40;0.68;;;;;;;-3.21;66.59;102617.94;4929054;28;20055;-73
2023/01/06 04:20:30;;;;;;;5.25;0.40;;;;;;;-3.20;66.41;102619.72;4943592;28;20065;-73
2023/01/06 04:22:58;;;;;;;2.25;0.28;;;;;;;-3.20;66.71;102605.25;4953642;28;20061;-73
2023/01/06 04:25:26;;;;;;;2.00;0.20;;;;;;;-3.19;66.22;102595.91;4950578;28;20057;-74
2023/01/06 04:27:53;;;;;;;0.68;0.20;;;;;;;-3.19;66.56;102590.78;4954135;28;20061;-73
2023/01/06 04:30:20;;;;;;;3.42;0.70;;;;;;;-3.21;66.39;102592.38;4958340;28;20058;-73
2023/01/06 04:32:47;;;;;;;1.98;0.40;;;;;;;-3.18;66.38;102592.59;4954326;28;20055;-73
2023/01/06 04:35:14;;;;;;;1.65;0.30;;;;;;;-3.17;66.43;102594.34;4959577;28;20167;-73
2023/01/06 04:37:41;;;;;;;1.55;0.30;;;;;;;-3.15;66.37;102584.25;4959067;28;20042;-73
2023/01/06 04:40:11;;;;;;;0.85;0.20;;;;;;;-3.13;66.07;102577.53;4957129;28;20055;-74
2023/01/06 04:45:22;;;;;;;1.73;0.25;;;;;;;-3.16;66.30;102580.78;4955432;28;20126;-73
2023/01/06 04:47:49;;;;;;;1.98;0.38;;;;;;;-3.13;66.32;102575.91;4958165;28;20138;-73
2023/01/06 04:50:16;;;;;;;5.85;0.40;;;;;;;-3.13;66.43;102580.09;4954578;28;20479;-74
2023/01/06 04:52:43;;;;;;;0.40;0.20;;;;;;;-3.12;66.60;102574.22;4955683;28;20219;-74
2023/01/06 04:55:12;;;;;;;1.58;0.35;;;;;;;-3.11;66.27;102574.31;4957523;28;20134;-73
2023/01/06 04:57:39;;;;;;;1.45;0.20;;;;;;;-3.11;66.51;102574.31;4955073;28;20053;-73
2023/01/06 05:00:07;;;;;;;2.67;0.45;;;;;;;-3.12;66.54;102572.53;4958809;28;20053;-73
2023/01/06 05:02:34;;;;;;;4.43;0.20;;;;;;;-3.12;66.61;102577.66;4958752;28;20047;-74
2023/01/06 05:05:01;;;;;;;0.80;0.30;;;;;;;-3.14;66.42;102571.53;4959927;28;20043;-73
2023/01/06 05:07:28;;;;;;;1.02;0.13;;;;;;;-3.12;66.43;102577.66;4961469;28;20059;-73
2023/01/06 05:09:54;;;;;;;2.05;0.40;;;;;;;-3.11;66.79;102574.31;4957950;28;20504;-73
2023/01/06 05:12:23;;;;;;;3.90;0.85;;;;;;;-3.11;67.18;102578.53;4960855;28;20055;-73
2023/01/06 05:14:50;;;;;;;2.35;0.60;;;;;;;-3.11;67.05;102579.41;4951074;28;20039;-73
2023/01/06 05:17:17;;;;;;;1.02;0.40;;;;;;;-3.10;66.94;102575.19;4959821;28;20178;-73
2023/01/06 05:19:44;;;;;;;1.20;0.50;;;;;;;-3.10;67.12;102570.97;4951023;28;20047;-73
2023/01/06 05:22:11;;;;;;;2.28;0.30;;;;;;;-3.10;67.45;102559.84;4952747;28;20043;-73
2023/01/06 05:24:38;;;;;;;5.75;0.30;;;;;;;-3.09;67.31;102559.97;4957471;28;20496;-73
2023/01/06 05:27:05;;;;;;;1.92;0.30;;;;;;;-3.11;67.38;102551.28;4957744;28;20051;-73
2023/01/06 05:29:34;;;;;;;1.02;0.13;;;;;;;-3.08;67.57;102548.06;4961535;28;20044;-74
2023/01/06 05:32:01;;;;;;;3.60;0.30;;;;;;;-3.08;67.66;102536.16;4961349;28;20054;-73
2023/01/06 05:34:28;;;;;;;2.30;0.63;;;;;;;-3.09;67.93;102531.84;4959357;28;20683;-74
2023/01/06 05:36:55;;;;;;;3.50;0.50;;;;;;;-3.08;67.95;102528.50;4959327;28;20049;-73
2023/01/06 05:39:23;;;;;;;4.88;0.50;;;;;;;-3.07;67.75;102531.94;4959069;28;20055;-73
2023/01/06 05:41:50;;;;;;;1.38;0.30;;;;;;;-3.08;68.37;102536.16;4960521;28;20082;-73
2023/01/06 05:44:17;;;;;;;2.85;0.70;;;;;;;-3.07;68.39;102535.38;4959848;28;20051;-73
2023/01/06 05:46:45;;;;;;;3.17;0.40;;;;;;;-3.07;68.72;102540.50;4960252;28;20130;-73
2023/01/06 05:49:12;;;;;;;0.70;0.40;;;;;;;-3.07;68.63;102535.38;4959070;28;20061;-73
2023/01/06 05:51:39;;;;;;;2.45;0.40;;;;;;;-3.06;69.09;102541.38;4957498;28;20503;-74
2023/01/06 05:54:08;;;;;;;3.78;0.30;;;;;;;-3.10;69.63;102530.09;4954305;28;20051;-73
2023/01/06 05:56:36;;;;;;;2.05;0.40;;;;;;;-3.04;68.96;102533.03;4958357;28;20424;-73
2023/01/06 05:59:03;;;;;;;1.58;0.40;;;;;;;-3.03;69.24;102532.22;4958158;28;20405;-72
2023/01/06 06:01:31;;;;;;;5.43;0.35;;;;;;;-3.02;69.21;102528.88;4961172;28;20039;-73
2023/01/06 06:04:00;;;;;;;1.30;0.30;;;;;;;-3.01;69.48;102530.66;4959812;28;20743;-73
2023/01/06 06:06:29;;;;;;;1.98;0.40;;;;;;;-2.98;69.50;102519.75;4961773;28;20126;-75
2023/01/06 06:08:57;;;;;;;1.60;0.65;;;;;;;-2.96;69.14;102523.28;4958936;28;20129;-73
2023/01/06 06:11:24;;;;;;;2.20;0.40;;;;;;;-2.95;69.55;102514.84;4957319;28;20057;-73
2023/01/06 06:13:52;;;;;;;1.20;0.30;;;;;;;-2.97;69.46;102506.19;4958883;28;20057;-73
2023/01/06 06:16:21;;;;;;;3.08;0.70;;;;;;;-2.90;69.40;102517.66;4953910;28;20465;-73
2023/01/06 06:18:50;;;;;;;2.75;0.40;;;;;;;-2.87;69.42;102512.78;4955533;28;20725;-73
2023/01/06 06:21:20;;;;;;;2.75;0.63;;;;;;;-2.86;69.80;102512.88;4957653;28;20055;-73
2023/01/06 06:23:47;;;;;;;4.20;0.40;;;;;;;-2.83;69.58;102502.81;4952317;28;20054;-73
2023/01/06 06:26:15;;;;;;;3.42;0.50;;;;;;;-2.80;69.88;102507.25;4960317;28;20051;-72
2023/01/06 06:28:42;;;;;;;1.52;0.40;;;;;;;-2.78;69.62;102513.38;4956266;28;20050;-73
2023/01/06 06:31:12;;;;;;;1.85;0.40;;;;;;;-2.84;69.82;102497.63;4960435;28;20057;-73
2023/01/06 06:33:39;;;;;;;2.80;0.40;;;;;;;-2.77;69.75;102507.44;4960464;28;20465;-74
2023/01/06 06:36:10;;;;;;;0.73;0.30;;;;;;;-2.92;70.19;102468.13;4959353;28;20558;-73
2023/01/06 06:38:39;;;;;;;1.40;0.75;;;;;;;-2.79;69.62;102486.91;4958471;28;20121;-73
2023/01/06 06:41:06;;;;;;;1.20;0.40;;;;;;;-2.74;69.96;102490.63;4960451;28;20126;-73
2023/01/06 06:43:33;;;;;;;0.40;0.20;;;;;;;-2.74;70.00;102500.84;4956637;28;20047;-73
2023/01/06 06:46:00;;;;;;;0.93;0.45;;;;;;;-2.82;70.23;102478.13;4958701;28;20040;-73
2023/01/06 06:48:28;;;;;;;1.88;0.40;;;;;;;-2.69;70.38;102501.16;4956039;28;20057;-73
2023/01/06 06:50:59;;;;;;;3.00;0.25;;;;;;;-2.69;70.26;102490.91;4955904;28;20097;-73
2023/01/06 06:53:26;;;;;;;6.55;0.20;;;;;;;-2.66;70.13;102506.47;4958665;28;20421;-73
2023/01/06 06:55:55;;;;;;;2.00;0.40;;;;;;;-2.63;70.54;102503.22;4956084;28;20485;-73
2023/01/06 06:58:23;;;;;;;0.68;0.30;;;;;;;-2.62;70.37;102495.66;4957015;28;20058;-73
2023/01/06 07:00:50;;;;;;;0.40;0.20;;;;;;;-2.63;70.19;102493.84;4954845;28;20073;-74
2023/01/06 07:03:17;;;;;;;2.15;0.30;;;;;;;-2.59;70.32;102493.28;4953960;28;20046;-73
2023/01/06 07:05:44;;;;;;;0.80;0.30;;;;;;;-2.58;70.63;102484.81;4960354;28;20154;-73
2023/01/06 07:08:12;;;;;;;1.20;0.20;;;;;;;-2.58;71.00;102484.81;4956856;28;20122;-73
2023/01/06 07:10:40;;;;;;;1.33;0.30;;;;;;;-2.59;71.80;102475.38;4955245;28;20047;-73
2023/01/06 07:13:08;;;;;;;2.15;0.47;;;;;;;-2.60;71.95;102470.13;4956099;28;20130;-72
2023/01/06 07:15:35;;;;;;;1.00;0.40;;;;;;;-2.56;72.20;102485.78;4952959;28;20055;-73
2023/01/06 07:18:04;;;;;;;0.38;0.22;;;;;;;-2.55;71.57;102485.00;4955863;28;20060;-73
2023/01/06 07:20:31;;;;;;;1.00;0.40;;;;;;;-2.51;71.62;102478.38;4961165;28;20051;-73
2023/01/06 07:22:58;;;;;;;0.40;0.20;;;;;;;-2.47;71.47;102482.03;4952498;28;20058;-73
2023/01/06 07:25:25;;;;;;;3.38;0.30;;;;;;;-2.46;71.50;102471.00;4950986;28;20055;-72
2023/01/06 07:27:57;;;;;;;2.15;1.08;;;;;;;-2.45;71.49;102473.63;4952782;28;20043;-74
2023/01/06 07:30:27;;;;;;;3.10;0.20;;;;;;;-2.40;71.74;102481.59;4958502;28;20054;-74
2023/01/06 07:32:54;;;;;;;0.40;0.30;;;;;;;-2.37;71.51;102476.69;4958373;28;20511;-74
2023/01/06 07:35:21;;;;;;;1.38;0.30;;;;;;;-2.34;71.17;102470.06;4957468;28;20051;-73
2023/01/06 07:37:48;;;;;;;1.40;0.20;;;;;;;-2.31;71.24;102467.69;4957366;28;20047;-73
2023/01/06 07:40:16;;;;;;;3.10;0.30;;;;;;;-2.28;71.48;102465.34;4960519;28;20122;-73
2023/01/06 07:42:43;;;;;;;0.20;0.05;;;;;;;-2.26;71.23;102481.66;4960841;28;20052;-71
2023/01/06 07:45:11;;;;;;;4.95;0.68;;;;;;;-2.23;71.79;102485.19;4957520;28;20047;-70
2023/01/06 07:47:39;;;;;;;2.00;0.60;;;;;;;-2.22;72.17;102485.31;4956194;28;20524;-71
2023/01/06 07:50:07;;;;;;;0.70;0.43;;;;;;;-2.28;72.36;102477.22;4958545;28;20419;-71
2023/01/06 07:52:34;;;;;;;0.75;0.30;;;;;;;-2.25;72.49;102482.53;4960880;28;20501;-70
2023/01/06 07:55:01;;;;;;;1.58;0.45;;;;;;;-2.26;72.47;102485.91;4963242;28;20043;-70
2023/01/06 07:57:29;;;;;;;4.70;0.40;;;;;;;-2.26;72.43;102485.91;4960271;28;20049;-71
2023/01/06 07:59:56;;;;;;;3.58;0.50;;;;;;;-2.27;72.42;102485.03;4960298;28;20510;-71
2023/01/06 08:02:23;;;;;;;1.65;0.47;;;;;;;-2.40;72.52;102456.91;4955716;28;20051;-71
2023/01/06 08:04:51;;;;;;;0.88;0.60;;;;;;;-2.27;72.86;102479.91;4960767;28;20054;-70
2023/01/06 08:07:18;;;;;;;2.38;0.30;;;;;;;-2.26;72.63;102481.66;4955106;28;20050;-70
2023/01/06 08:09:45;;;;;;;2.03;0.40;;;;;;;-2.26;72.63;102480.78;4955304;28;20544;-71
2023/01/06 08:12:12;;;;;;;2.03;0.35;;;;;;;-2.27;72.67;102479.03;4955674;28;20062;-71
2023/01/06 08:14:39;;;;;;;1.73;0.40;;;;;;;-2.27;72.37;102479.03;4958112;28;20051;-70
2023/01/06 08:17:06;;;;;;;3.75;0.65;;;;;;;-2.27;72.41;102484.13;4962252;28;20488;-70
2023/01/06 08:19:33;;;;;;;0.65;0.25;;;;;;;-2.31;72.02;102474.47;4961438;28;20346;-70
2023/01/06 08:22:01;;;;;;;1.27;0.45;;;;;;;-2.28;71.88;102483.25;4956915;28;20130;-70
2023/01/06 08:24:29;;;;;;;2.47;0.73;;;;;;;-2.39;71.54;102466.38;4960572;28;20057;-70
2023/01/06 08:26:56;;;;;;;0.70;0.35;;;;;;;-2.29;71.48;102483.16;4957059;28;20043;-70
2023/01/06 08:29:23;;;;;;;0.82;0.25;;;;;;;-2.29;71.49;102470.34;4963832;28;20063;-70
2023/01/06 08:31:50;;;;;;;0.22;0.17;;;;;;;-2.29;71.56;102481.47;4958303;28;20062;-70
2023/01/06 08:34:17;;;;;;;1.05;0.73;;;;;;;-2.29;71.47;102480.59;4960545;28;20043;-70
2023/01/06 08:36:44;;;;;;;0.63;0.30;;;;;;;-2.28;71.67;102482.34;4959154;28;20054;-70
2023/01/06 08:39:14;;;;;;;0.43;0.30;;;;;;;-2.28;71.29;102483.25;4959880;28;20057;-70
2023/01/06 08:41:41;;;;;;;1.02;0.50;;;;;;;-2.33;71.01;102468.41;4958087;28;20053;-70
2023/01/06 08:44:08;;;;;;;1.27;0.10;;;;;;;-2.29;71.00;102483.16;4961888;28;20420;-71
2023/01/06 08:46:35;;;;;;;0.82;0.30;;;;;;;-2.29;71.21;102483.16;4955199;28;20089;-70
2023/01/06 08:49:02;;;;;;;1.73;0.40;;;;;;;-2.29;70.62;102488.28;4962645;28;20043;-70
2023/01/06 08:51:29;;;;;;;3.20;0.10;;;;;;;-2.31;70.16;102487.28;4958795;28;20447;-70
2023/01/06 08:53:56;;;;;;;1.45;0.50;;;;;;;-2.31;70.31;102497.53;4959844;28;20223;-70
2023/01/06 08:56:28;;;;;;;3.50;0.55;;;;;;;-2.33;69.98;102491.44;4958659;28;20083;-71
2023/01/06 08:58:57;;;;;;;1.52;0.30;;;;;;;-2.36;69.36;102488.66;4961492;28;20047;-71
2023/01/06 09:01:26;;;;;;;1.15;0.30;;;;;;;-2.34;69.46;102487.09;4955356;28;20051;-71
2023/01/06 09:03:53;;;;;;;3.05;0.80;;;;;;;-2.36;69.12;102483.56;4956927;28;20059;-71
2023/01/06 09:06:21;;;;;;;1.95;0.75;;;;;;;-2.38;69.08;102474.91;4958186;28;20066;-72
2023/01/06 09:08:49;;;;;;;4.07;0.40;;;;;;;-2.37;69.05;102472.44;4960397;28;20057;-73
2023/01/06 09:11:17;;;;;;;0.20;0.10;;;;;;;-2.46;68.99;102455.66;4959042;28;20524;-72
2023/01/06 09:13:46;;;;;;;0.98;0.50;;;;;;;-2.39;68.52;102471.47;4957017;28;20047;-72
2023/01/06 09:16:13;;;;;;;6.47;0.40;;;;;;;-2.39;68.36;102473.13;4957491;28;20061;-71
2023/01/06 09:18:46;;;;;;;3.22;0.60;;;;;;;-2.39;68.24;102462.88;4958315;28;20051;-72
2023/01/06 09:21:13;;;;;;;4.28;0.50;;;;;;;-2.40;68.19;102461.13;4951411;28;20051;-72
2023/01/06 09:23:40;;;;;;;1.60;0.30;;;;;;;-2.37;67.75;102457.09;4955435;28;20047;-72
2023/01/06 09:26:07;;;;;;;1.65;0.68;;;;;;;-2.37;67.37;102466.44;4954715;28;20053;-71
2023/01/06 09:28:33;;;;;;;1.63;0.20;;;;;;;-2.39;67.22;102463.81;4957184;28;20047;-71
2023/01/06 09:31:03;;;;;;;0.10;0.10;;;;;;;-2.39;66.87;102462.88;4956534;28;20057;-71
2023/01/06 09:33:30;;;;;;;1.35;0.40;;;;;;;-2.41;67.14;102465.38;4931910;28;20145;-71
2023/01/06 09:35:56;;;;;;;0.43;0.10;;;;;;;-2.42;67.17;102463.63;4978344;28;20499;-72
2023/01/06 09:38:25;;;;;;;4.07;0.60;;;;;;;-2.39;66.65;102468.00;4974773;28;20068;-72
2023/01/06 09:41:05;;;;;;;1.52;0.50;;;;;;;-2.41;65.67;102462.81;4973584;28;20043;-73
2023/01/06 09:43:46;;;;;;;1.65;0.47;;;;;;;-2.42;66.14;102468.75;4979568;28;20463;-72
2023/01/06 09:46:17;;;;;;;0.57;0.20;;;;;;;-2.45;65.64;102454.84;4970332;28;20053;-72
2023/01/06 09:48:55;;;;;;;1.98;0.70;;;;;;;-2.42;65.62;102448.25;4975318;28;20061;-72
2023/01/06 09:51:25;;;;;;;1.08;0.40;;;;;;;-2.41;65.74;102446.59;4977404;28;20125;-72
2023/01/06 09:53:57;;;;;;;1.77;0.52;;;;;;;-2.40;66.28;102446.66;4973140;28;20053;-72
2023/01/06 09:56:25;;;;;;;2.15;0.63;;;;;;;-2.39;65.91;102447.53;4971756;28;20113;-73
2023/01/06 09:59:00;;;;;;;1.10;0.38;;;;;;;-2.38;65.78;102446.78;4976256;28;20050;-73
2023/01/06 10:01:36;;;;;;;3.13;0.40;;;;;;;-2.39;64.96;102450.09;4969297;28;20493;-73
2023/01/06 10:04:03;;;;;;;0.47;0.20;;;;;;;-2.39;65.41;102427.06;4970857;28;20065;-72
2023/01/06 10:06:33;;;;;;;0.93;0.30;;;;;;;-2.39;65.15;102434.75;4971997;28;20411;-73
2023/01/06 10:09:15;;;;;;;0.10;0.10;;;;;;;-2.38;64.50;102434.84;4969335;28;20054;-75
2023/01/06 10:11:55;;;;;;;11.85;3.05;;;;;;;-2.39;64.07;102433.09;4972214;28;20064;-72
2023/01/06 10:14:37;;;;;;;2.97;0.82;;;;;;;-2.40;63.94;102420.19;4975060;28;20054;-72
2023/01/06 10:17:20;;;;;;;1.08;0.70;;;;;;;-2.43;64.48;102414.88;4975938;28;20051;-72
2023/01/06 10:19:58;;;;;;;4.00;0.68;;;;;;;-2.38;63.78;102418.63;4974582;28;20052;-72
2023/01/06 10:22:35;;;;;;;3.40;0.38;;;;;;;-2.39;64.04;102420.31;4973689;28;20363;-72
2023/01/06 10:25:12;;;;;;;2.03;0.82;;;;;;;-2.40;64.29;102403.16;4973891;28;20046;-72
2023/01/06 10:27:41;;;;;;;2.08;0.30;;;;;;;-2.41;64.29;102397.97;4976662;28;20060;-71
2023/01/06 10:30:18;;;;;;;3.60;0.35;;;;;;;-2.35;64.60;102408.56;4976093;28;20121;-73
2023/01/06 10:32:48;;;;;;;0.25;0.20;;;;;;;-2.38;64.85;102386.22;4977847;28;20503;-73
2023/01/06 10:35:17;;;;;;;1.83;0.35;;;;;;;-2.35;64.35;102404.31;4977058;28;20539;-73
2023/01/06 10:37:47;;;;;;;1.02;0.40;;;;;;;-2.34;64.54;102395.84;4975683;28;20046;-75
2023/01/06 10:40:19;;;;;;;3.53;0.30;;;;;;;-2.32;64.65;102393.38;4975079;28;20047;-75
2023/01/06 10:42:59;;;;;;;2.92;0.75;;;;;;;-2.32;64.90;102399.38;4975260;28;20050;-76
2023/01/06 10:45:28;;;;;;;1.13;0.45;;;;;;;-2.31;65.01;102388.34;4972120;28;20519;-76
2023/01/06 10:47:58;;;;;;;0.98;0.25;;;;;;;-2.30;64.76;102391.81;4977852;28;20493;-76
2023/01/06 10:50:25;;;;;;;1.17;0.40;;;;;;;-2.32;65.54;102386.59;4978829;28;20060;-76
2023/01/06 10:52:52;;;;;;;0.68;0.32;;;;;;;-2.37;65.47;102369.19;4975871;28;20047;-76
2023/01/06 10:55:46;;;;;;;3.47;0.30;;;;;;;-2.30;65.33;102381.56;4972402;28;20072;-76
2023/01/06 10:58:32;;;;;;;6.60;0.73;;;;;;;-2.29;65.58;102378.22;4961196;28;20053;-75
2023/01/06 11:01:01;;;;;;;8.55;0.90;;;;;;;-2.28;66.22;102369.72;4969409;28;20097;-75
2023/01/06 11:03:30;;;;;;;2.90;0.52;;;;;;;-2.25;66.23;102369.91;4976476;28;20151;-75
2023/01/06 11:06:03;;;;;;;0.38;0.20;;;;;;;-2.25;66.25;102367.34;4978973;28;20520;-75
2023/01/06 11:08:31;;;;;;;1.42;0.45;;;;;;;-2.26;66.43;102357.91;4982049;28;20125;-76
2023/01/06 11:10:58;;;;;;;2.90;0.90;;;;;;;-2.27;66.10;102372.41;4981728;28;20457;-75
2023/01/06 11:13:29;;;;;;;2.63;0.73;;;;;;;-2.28;66.59;102365.53;4982895;28;20053;-75
2023/01/06 11:15:57;;;;;;;1.17;0.30;;;;;;;-2.29;66.58;102376.53;4979610;28;20066;-75
2023/01/06 11:18:27;;;;;;;2.30;1.00;;;;;;;-2.33;67.25;102345.56;4980959;28;20085;-75
2023/01/06 11:21:08;;;;;;;1.33;0.28;;;;;;;-2.30;66.97;102343.19;4982306;28;20057;-76
2023/01/06 11:23:36;;;;;;;12.40;0.55;;;;;;;-2.33;67.13;102336.22;4979640;28;20081;-75
2023/01/06 11:26:14;;;;;;;4.68;0.85;;;;;;;-2.33;67.43;102335.31;4982074;28;20480;-75
2023/01/06 11:28:41;;;;;;;2.55;0.73;;;;;;;-2.31;67.50;102328.59;4971096;28;20047;-75
2023/01/06 11:31:11;;;;;;;2.28;0.60;;;;;;;-2.32;67.34;102316.59;4980217;28;20522;-75
2023/01/06 11:33:47;;;;;;;0.70;0.45;;;;;;;-2.32;67.34;102326.84;4978947;28;20047;-75
2023/01/06 11:36:17;;;;;;;0.80;0.32;;;;;;;-2.33;67.36;102307.19;5011368;23;20062;-75
2023/01/06 11:38:47;;;;;;;2.10;0.60;;;;;;;-2.32;67.67;102312.38;4954786;23;20848;-75
2023/01/06 11:41:23;;;;;;;2.80;1.05;;;;;;;-2.32;68.12;102320.03;4942114;28;20130;-76
2023/01/06 11:43:52;;;;;;;1.63;0.60;;;;;;;-2.34;68.76;102296.03;4941967;28;20048;-75